sensor_id;sensor_type;location;lat;lon;timestamp;P1;durP1;ratioP1;P2;durP2;ratioP2
52984;SDS011;40499;47.830;19.026;2022-09-29T00:00:20;5.65;;;3.30;;
52984;SDS011;40499;47.830;19.026;2022-09-29T00:02:46;7.72;;;3.53;;
52984;SDS011;40499;47.830;19.026;2022-09-29T00:05:11;5.32;;;3.03;;
52984;SDS011;40499;47.830;19.026;2022-09-29T00:07:36;6.23;;;3.33;;
52984;SDS011;40499;47.830;19.026;2022-09-29T00:10:01;8.13;;;3.33;;
52984;SDS011;40499;47.830;19.026;2022-09-29T00:12:27;4.85;;;3.63;;
52984;SDS011;40499;47.830;19.026;2022-09-29T00:14:52;6.40;;;3.40;;
52984;SDS011;40499;47.830;19.026;2022-09-29T00:17:18;4.65;;;3.00;;
52984;SDS011;40499;47.830;19.026;2022-09-29T00:19:43;6.97;;;3.85;;
52984;SDS011;40499;47.830;19.026;2022-09-29T00:22:08;12.43;;;3.40;;
52984;SDS011;40499;47.830;19.026;2022-09-29T00:24:33;7.87;;;3.70;;
52984;SDS011;40499;47.830;19.026;2022-09-29T00:26:59;6.60;;;3.28;;
52984;SDS011;40499;47.830;19.026;2022-09-29T00:29:24;7.20;;;3.70;;
52984;SDS011;40499;47.830;19.026;2022-09-29T00:31:49;8.48;;;3.67;;
52984;SDS011;40499;47.830;19.026;2022-09-29T00:34:14;10.57;;;4.10;;
52984;SDS011;40499;47.830;19.026;2022-09-29T00:36:40;6.38;;;3.75;;
52984;SDS011;40499;47.830;19.026;2022-09-29T00:39:05;8.70;;;4.05;;
52984;SDS011;40499;47.830;19.026;2022-09-29T00:41:32;8.07;;;3.10;;
52984;SDS011;40499;47.830;19.026;2022-09-29T00:43:59;6.68;;;3.88;;
52984;SDS011;40499;47.830;19.026;2022-09-29T00:51:44;7.18;;;3.38;;
52984;SDS011;40499;47.830;19.026;2022-09-29T00:54:12;5.85;;;3.67;;
52984;SDS011;40499;47.830;19.026;2022-09-29T00:56:38;5.93;;;3.95;;
52984;SDS011;40499;47.830;19.026;2022-09-29T00:59:09;6.47;;;4.15;;
52984;SDS011;40499;47.830;19.026;2022-09-29T01:01:35;8.02;;;3.90;;
52984;SDS011;40499;47.830;19.026;2022-09-29T01:04:06;5.63;;;3.63;;
52984;SDS011;40499;47.830;19.026;2022-09-29T01:06:52;5.45;;;3.40;;
52984;SDS011;40499;47.830;19.026;2022-09-29T01:09:19;7.60;;;3.80;;
52984;SDS011;40499;47.830;19.026;2022-09-29T01:11:45;8.43;;;4.03;;
52984;SDS011;40499;47.830;19.026;2022-09-29T01:14:10;5.53;;;3.42;;
52984;SDS011;40499;47.830;19.026;2022-09-29T01:16:36;6.25;;;3.88;;
52984;SDS011;40499;47.830;19.026;2022-09-29T01:21:56;5.10;;;3.78;;
52984;SDS011;40499;47.830;19.026;2022-09-29T01:29:52;7.00;;;3.83;;
52984;SDS011;40499;47.830;19.026;2022-09-29T01:35:14;8.00;;;4.05;;
52984;SDS011;40499;47.830;19.026;2022-09-29T01:40:16;7.13;;;3.77;;
52984;SDS011;40499;47.830;19.026;2022-09-29T01:47:54;6.25;;;4.05;;
52984;SDS011;40499;47.830;19.026;2022-09-29T01:53:29;8.50;;;4.10;;
52984;SDS011;40499;47.830;19.026;2022-09-29T01:55:59;6.78;;;4.35;;
52984;SDS011;40499;47.830;19.026;2022-09-29T01:58:35;6.40;;;4.03;;
52984;SDS011;40499;47.830;19.026;2022-09-29T02:01:03;8.60;;;3.80;;
52984;SDS011;40499;47.830;19.026;2022-09-29T02:03:31;9.02;;;4.45;;
52984;SDS011;40499;47.830;19.026;2022-09-29T02:05:59;7.10;;;3.95;;
52984;SDS011;40499;47.830;19.026;2022-09-29T02:11:03;5.53;;;3.55;;
52984;SDS011;40499;47.830;19.026;2022-09-29T02:13:30;8.75;;;4.57;;
52984;SDS011;40499;47.830;19.026;2022-09-29T02:15:57;7.10;;;4.15;;
52984;SDS011;40499;47.830;19.026;2022-09-29T02:18:26;7.80;;;4.07;;
52984;SDS011;40499;47.830;19.026;2022-09-29T02:20:54;6.70;;;4.30;;
52984;SDS011;40499;47.830;19.026;2022-09-29T02:23:19;6.57;;;4.18;;
52984;SDS011;40499;47.830;19.026;2022-09-29T02:25:45;6.45;;;4.18;;
52984;SDS011;40499;47.830;19.026;2022-09-29T02:28:11;9.80;;;3.88;;
52984;SDS011;40499;47.830;19.026;2022-09-29T02:30:37;8.48;;;4.10;;
52984;SDS011;40499;47.830;19.026;2022-09-29T02:33:02;6.72;;;4.07;;
52984;SDS011;40499;47.830;19.026;2022-09-29T02:35:31;6.50;;;4.25;;
52984;SDS011;40499;47.830;19.026;2022-09-29T02:38:05;7.13;;;4.68;;
52984;SDS011;40499;47.830;19.026;2022-09-29T02:43:27;9.00;;;4.50;;
52984;SDS011;40499;47.830;19.026;2022-09-29T02:51:09;9.82;;;4.45;;
52984;SDS011;40499;47.830;19.026;2022-09-29T02:56:25;6.40;;;4.70;;
52984;SDS011;40499;47.830;19.026;2022-09-29T02:59:08;7.03;;;4.68;;
52984;SDS011;40499;47.830;19.026;2022-09-29T03:01:34;7.65;;;4.68;;
52984;SDS011;40499;47.830;19.026;2022-09-29T03:04:10;7.25;;;4.85;;
52984;SDS011;40499;47.830;19.026;2022-09-29T03:06:35;7.27;;;4.73;;
52984;SDS011;40499;47.830;19.026;2022-09-29T03:09:00;9.10;;;4.45;;
52984;SDS011;40499;47.830;19.026;2022-09-29T03:11:26;7.20;;;4.53;;
52984;SDS011;40499;47.830;19.026;2022-09-29T03:13:51;7.18;;;4.80;;
52984;SDS011;40499;47.830;19.026;2022-09-29T03:16:18;14.65;;;4.88;;
52984;SDS011;40499;47.830;19.026;2022-09-29T03:18:43;6.95;;;4.45;;
52984;SDS011;40499;47.830;19.026;2022-09-29T03:21:08;8.82;;;5.47;;
52984;SDS011;40499;47.830;19.026;2022-09-29T03:23:33;10.70;;;5.88;;
52984;SDS011;40499;47.830;19.026;2022-09-29T03:25:59;9.02;;;5.82;;
52984;SDS011;40499;47.830;19.026;2022-09-29T03:28:24;9.13;;;5.77;;
52984;SDS011;40499;47.830;19.026;2022-09-29T03:30:49;9.73;;;5.63;;
52984;SDS011;40499;47.830;19.026;2022-09-29T03:33:14;9.30;;;5.27;;
52984;SDS011;40499;47.830;19.026;2022-09-29T03:35:40;7.47;;;4.88;;
52984;SDS011;40499;47.830;19.026;2022-09-29T03:38:05;11.00;;;5.45;;
52984;SDS011;40499;47.830;19.026;2022-09-29T03:40:30;8.98;;;5.72;;
52984;SDS011;40499;47.830;19.026;2022-09-29T03:42:56;10.77;;;5.87;;
52984;SDS011;40499;47.830;19.026;2022-09-29T03:45:21;11.93;;;5.90;;
52984;SDS011;40499;47.830;19.026;2022-09-29T03:47:46;8.57;;;5.35;;
52984;SDS011;40499;47.830;19.026;2022-09-29T03:50:12;9.65;;;5.80;;
52984;SDS011;40499;47.830;19.026;2022-09-29T03:52:37;10.27;;;6.35;;
52984;SDS011;40499;47.830;19.026;2022-09-29T03:55:02;7.57;;;4.95;;
52984;SDS011;40499;47.830;19.026;2022-09-29T03:57:27;8.90;;;5.47;;
52984;SDS011;40499;47.830;19.026;2022-09-29T03:59:53;7.65;;;4.82;;
52984;SDS011;40499;47.830;19.026;2022-09-29T04:02:18;9.40;;;5.30;;
52984;SDS011;40499;47.830;19.026;2022-09-29T04:04:44;10.15;;;4.97;;
52984;SDS011;40499;47.830;19.026;2022-09-29T04:07:10;8.25;;;5.10;;
52984;SDS011;40499;47.830;19.026;2022-09-29T04:09:35;10.35;;;5.55;;
52984;SDS011;40499;47.830;19.026;2022-09-29T04:12:00;10.95;;;5.63;;
52984;SDS011;40499;47.830;19.026;2022-09-29T04:14:26;7.97;;;5.37;;
52984;SDS011;40499;47.830;19.026;2022-09-29T04:16:51;11.05;;;4.82;;
52984;SDS011;40499;47.830;19.026;2022-09-29T04:19:16;8.82;;;5.07;;
52984;SDS011;40499;47.830;19.026;2022-09-29T04:21:41;9.47;;;5.87;;
52984;SDS011;40499;47.830;19.026;2022-09-29T04:24:06;10.38;;;5.22;;
52984;SDS011;40499;47.830;19.026;2022-09-29T04:26:32;12.38;;;5.35;;
52984;SDS011;40499;47.830;19.026;2022-09-29T04:28:57;11.13;;;5.53;;
52984;SDS011;40499;47.830;19.026;2022-09-29T04:31:22;12.48;;;6.00;;
52984;SDS011;40499;47.830;19.026;2022-09-29T04:33:48;9.83;;;4.63;;
52984;SDS011;40499;47.830;19.026;2022-09-29T04:36:13;10.77;;;5.50;;
52984;SDS011;40499;47.830;19.026;2022-09-29T04:38:38;11.48;;;5.57;;
52984;SDS011;40499;47.830;19.026;2022-09-29T04:41:04;10.48;;;5.40;;
52984;SDS011;40499;47.830;19.026;2022-09-29T04:43:29;7.95;;;5.40;;
52984;SDS011;40499;47.830;19.026;2022-09-29T04:46:01;11.63;;;5.53;;
52984;SDS011;40499;47.830;19.026;2022-09-29T04:48:27;11.15;;;5.82;;
52984;SDS011;40499;47.830;19.026;2022-09-29T04:50:52;10.82;;;5.90;;
52984;SDS011;40499;47.830;19.026;2022-09-29T04:53:19;8.55;;;5.75;;
52984;SDS011;40499;47.830;19.026;2022-09-29T04:55:44;10.00;;;6.63;;
52984;SDS011;40499;47.830;19.026;2022-09-29T04:58:09;14.20;;;6.65;;
52984;SDS011;40499;47.830;19.026;2022-09-29T05:00:35;12.40;;;6.85;;
52984;SDS011;40499;47.830;19.026;2022-09-29T05:03:00;9.77;;;5.90;;
52984;SDS011;40499;47.830;19.026;2022-09-29T05:05:25;9.25;;;6.53;;
52984;SDS011;40499;47.830;19.026;2022-09-29T05:07:51;10.82;;;6.40;;
52984;SDS011;40499;47.830;19.026;2022-09-29T05:10:16;10.97;;;6.43;;
52984;SDS011;40499;47.830;19.026;2022-09-29T05:12:46;9.10;;;6.22;;
52984;SDS011;40499;47.830;19.026;2022-09-29T05:15:11;9.27;;;5.95;;
52984;SDS011;40499;47.830;19.026;2022-09-29T05:17:36;14.13;;;7.40;;
52984;SDS011;40499;47.830;19.026;2022-09-29T05:20:01;8.60;;;5.83;;
52984;SDS011;40499;47.830;19.026;2022-09-29T05:22:27;14.20;;;6.85;;
52984;SDS011;40499;47.830;19.026;2022-09-29T05:24:52;13.68;;;8.57;;
52984;SDS011;40499;47.830;19.026;2022-09-29T05:27:18;13.13;;;7.43;;
52984;SDS011;40499;47.830;19.026;2022-09-29T05:29:43;10.63;;;6.68;;
52984;SDS011;40499;47.830;19.026;2022-09-29T05:32:08;13.40;;;8.50;;
52984;SDS011;40499;47.830;19.026;2022-09-29T05:34:33;15.13;;;9.00;;
52984;SDS011;40499;47.830;19.026;2022-09-29T05:36:59;12.30;;;7.67;;
52984;SDS011;40499;47.830;19.026;2022-09-29T05:39:24;12.40;;;7.93;;
52984;SDS011;40499;47.830;19.026;2022-09-29T05:41:49;13.32;;;7.65;;
52984;SDS011;40499;47.830;19.026;2022-09-29T05:44:14;13.03;;;7.17;;
52984;SDS011;40499;47.830;19.026;2022-09-29T05:46:40;11.90;;;6.82;;
52984;SDS011;40499;47.830;19.026;2022-09-29T05:49:05;10.40;;;7.30;;
52984;SDS011;40499;47.830;19.026;2022-09-29T05:51:31;12.98;;;7.50;;
52984;SDS011;40499;47.830;19.026;2022-09-29T05:53:56;13.75;;;7.45;;
52984;SDS011;40499;47.830;19.026;2022-09-29T05:56:23;10.45;;;6.90;;
52984;SDS011;40499;47.830;19.026;2022-09-29T05:58:48;13.50;;;6.32;;
52984;SDS011;40499;47.830;19.026;2022-09-29T06:01:15;9.57;;;7.38;;
52984;SDS011;40499;47.830;19.026;2022-09-29T06:03:40;9.80;;;6.78;;
52984;SDS011;40499;47.830;19.026;2022-09-29T06:06:13;13.27;;;7.80;;
52984;SDS011;40499;47.830;19.026;2022-09-29T06:08:39;14.35;;;8.80;;
52984;SDS011;40499;47.830;19.026;2022-09-29T06:11:06;21.15;;;10.07;;
52984;SDS011;40499;47.830;19.026;2022-09-29T06:13:31;15.73;;;9.77;;
52984;SDS011;40499;47.830;19.026;2022-09-29T06:15:57;15.35;;;9.88;;
52984;SDS011;40499;47.830;19.026;2022-09-29T06:18:22;19.27;;;11.77;;
52984;SDS011;40499;47.830;19.026;2022-09-29T06:20:48;18.43;;;11.47;;
52984;SDS011;40499;47.830;19.026;2022-09-29T06:23:14;16.33;;;11.70;;
52984;SDS011;40499;47.830;19.026;2022-09-29T06:25:39;16.75;;;10.43;;
52984;SDS011;40499;47.830;19.026;2022-09-29T06:28:05;13.93;;;10.05;;
52984;SDS011;40499;47.830;19.026;2022-09-29T06:30:30;13.60;;;9.27;;
52984;SDS011;40499;47.830;19.026;2022-09-29T06:32:55;16.07;;;9.43;;
52984;SDS011;40499;47.830;19.026;2022-09-29T06:35:20;18.63;;;10.05;;
52984;SDS011;40499;47.830;19.026;2022-09-29T06:38:04;14.52;;;9.35;;
52984;SDS011;40499;47.830;19.026;2022-09-29T06:40:29;11.90;;;8.67;;
52984;SDS011;40499;47.830;19.026;2022-09-29T06:42:55;12.33;;;8.13;;
52984;SDS011;40499;47.830;19.026;2022-09-29T06:45:20;13.50;;;8.67;;
52984;SDS011;40499;47.830;19.026;2022-09-29T06:47:45;13.00;;;8.20;;
52984;SDS011;40499;47.830;19.026;2022-09-29T06:50:10;12.43;;;8.80;;
52984;SDS011;40499;47.830;19.026;2022-09-29T06:52:36;15.47;;;8.83;;
52984;SDS011;40499;47.830;19.026;2022-09-29T06:55:01;13.77;;;9.37;;
52984;SDS011;40499;47.830;19.026;2022-09-29T06:57:26;9.37;;;5.93;;
52984;SDS011;40499;47.830;19.026;2022-09-29T06:59:51;7.72;;;4.88;;
52984;SDS011;40499;47.830;19.026;2022-09-29T07:02:16;4.33;;;2.70;;
52984;SDS011;40499;47.830;19.026;2022-09-29T07:04:42;3.25;;;1.80;;
52984;SDS011;40499;47.830;19.026;2022-09-29T07:07:07;3.33;;;1.40;;
52984;SDS011;40499;47.830;19.026;2022-09-29T07:09:33;1.53;;;1.03;;
52984;SDS011;40499;47.830;19.026;2022-09-29T07:11:58;2.53;;;0.90;;
52984;SDS011;40499;47.830;19.026;2022-09-29T07:14:23;1.70;;;0.80;;
52984;SDS011;40499;47.830;19.026;2022-09-29T07:16:50;1.52;;;0.68;;
52984;SDS011;40499;47.830;19.026;2022-09-29T07:19:16;1.17;;;0.60;;
52984;SDS011;40499;47.830;19.026;2022-09-29T07:21:42;0.82;;;0.50;;
52984;SDS011;40499;47.830;19.026;2022-09-29T07:24:07;0.77;;;0.45;;
52984;SDS011;40499;47.830;19.026;2022-09-29T07:26:33;3.28;;;0.70;;
52984;SDS011;40499;47.830;19.026;2022-09-29T07:28:58;2.80;;;0.80;;
52984;SDS011;40499;47.830;19.026;2022-09-29T07:31:23;1.10;;;0.67;;
52984;SDS011;40499;47.830;19.026;2022-09-29T07:33:49;1.00;;;0.70;;
52984;SDS011;40499;47.830;19.026;2022-09-29T07:36:15;6.03;;;1.08;;
52984;SDS011;40499;47.830;19.026;2022-09-29T07:38:41;1.70;;;0.63;;
52984;SDS011;40499;47.830;19.026;2022-09-29T07:41:07;1.50;;;0.70;;
52984;SDS011;40499;47.830;19.026;2022-09-29T07:43:33;2.60;;;0.95;;
52984;SDS011;40499;47.830;19.026;2022-09-29T07:45:58;3.03;;;0.88;;
52984;SDS011;40499;47.830;19.026;2022-09-29T07:48:24;3.53;;;1.08;;
52984;SDS011;40499;47.830;19.026;2022-09-29T07:50:49;1.98;;;0.85;;
52984;SDS011;40499;47.830;19.026;2022-09-29T07:53:16;2.08;;;1.10;;
52984;SDS011;40499;47.830;19.026;2022-09-29T07:55:42;2.25;;;1.17;;
52984;SDS011;40499;47.830;19.026;2022-09-29T07:58:10;2.42;;;1.00;;
52984;SDS011;40499;47.830;19.026;2022-09-29T08:00:35;1.90;;;0.95;;
52984;SDS011;40499;47.830;19.026;2022-09-29T08:03:01;1.98;;;0.90;;
52984;SDS011;40499;47.830;19.026;2022-09-29T08:05:26;2.28;;;0.90;;
52984;SDS011;40499;47.830;19.026;2022-09-29T08:07:52;0.82;;;0.55;;
52984;SDS011;40499;47.830;19.026;2022-09-29T08:10:19;1.00;;;0.73;;
52984;SDS011;40499;47.830;19.026;2022-09-29T08:12:45;1.08;;;0.65;;
52984;SDS011;40499;47.830;19.026;2022-09-29T08:15:10;1.02;;;0.63;;
52984;SDS011;40499;47.830;19.026;2022-09-29T08:17:35;1.60;;;0.60;;
52984;SDS011;40499;47.830;19.026;2022-09-29T08:20:02;0.93;;;0.52;;
52984;SDS011;40499;47.830;19.026;2022-09-29T08:22:27;1.05;;;0.52;;
52984;SDS011;40499;47.830;19.026;2022-09-29T08:25:16;0.80;;;0.55;;
52984;SDS011;40499;47.830;19.026;2022-09-29T08:27:41;0.65;;;0.50;;
52984;SDS011;40499;47.830;19.026;2022-09-29T08:30:07;6.35;;;0.98;;
52984;SDS011;40499;47.830;19.026;2022-09-29T08:32:34;0.70;;;0.32;;
52984;SDS011;40499;47.830;19.026;2022-09-29T08:34:59;0.90;;;0.50;;
52984;SDS011;40499;47.830;19.026;2022-09-29T08:37:25;1.30;;;0.80;;
52984;SDS011;40499;47.830;19.026;2022-09-29T08:39:51;1.80;;;0.60;;
52984;SDS011;40499;47.830;19.026;2022-09-29T08:42:27;0.98;;;0.50;;
52984;SDS011;40499;47.830;19.026;2022-09-29T08:44:58;1.05;;;0.50;;
52984;SDS011;40499;47.830;19.026;2022-09-29T08:47:27;1.05;;;0.50;;
52984;SDS011;40499;47.830;19.026;2022-09-29T08:49:57;2.45;;;0.47;;
52984;SDS011;40499;47.830;19.026;2022-09-29T08:52:33;0.70;;;0.38;;
52984;SDS011;40499;47.830;19.026;2022-09-29T08:57:42;2.70;;;0.45;;
52984;SDS011;40499;47.830;19.026;2022-09-29T09:00:10;2.25;;;0.55;;
52984;SDS011;40499;47.830;19.026;2022-09-29T09:02:52;0.95;;;0.47;;
52984;SDS011;40499;47.830;19.026;2022-09-29T09:14:02;1.75;;;0.60;;
52984;SDS011;40499;47.830;19.026;2022-09-29T09:23:15;1.27;;;0.40;;
52984;SDS011;40499;47.830;19.026;2022-09-29T10:04:43;2.35;;;0.60;;
52984;SDS011;40499;47.830;19.026;2022-09-29T10:07:11;0.70;;;0.40;;
52984;SDS011;40499;47.830;19.026;2022-09-29T10:09:38;0.55;;;0.30;;
52984;SDS011;40499;47.830;19.026;2022-09-29T10:12:04;1.10;;;0.40;;
52984;SDS011;40499;47.830;19.026;2022-09-29T10:14:30;1.42;;;0.40;;
52984;SDS011;40499;47.830;19.026;2022-09-29T10:17:00;1.00;;;0.40;;
52984;SDS011;40499;47.830;19.026;2022-09-29T10:22:11;1.05;;;0.20;;
52984;SDS011;40499;47.830;19.026;2022-09-29T10:24:37;0.65;;;0.40;;
52984;SDS011;40499;47.830;19.026;2022-09-29T10:27:02;1.57;;;0.43;;
52984;SDS011;40499;47.830;19.026;2022-09-29T10:34:28;0.60;;;0.40;;
52984;SDS011;40499;47.830;19.026;2022-09-29T10:36:57;1.55;;;0.50;;
52984;SDS011;40499;47.830;19.026;2022-09-29T10:40:00;2.00;;;0.60;;
52984;SDS011;40499;47.830;19.026;2022-09-29T10:42:24;1.13;;;0.30;;
52984;SDS011;40499;47.830;19.026;2022-09-29T10:45:00;1.35;;;0.38;;
52984;SDS011;40499;47.830;19.026;2022-09-29T10:47:25;0.43;;;0.20;;
52984;SDS011;40499;47.830;19.026;2022-09-29T10:50:34;0.47;;;0.17;;
52984;SDS011;40499;47.830;19.026;2022-09-29T10:52:46;3.15;;;0.30;;
52984;SDS011;40499;47.830;19.026;2022-09-29T10:55:19;1.38;;;0.28;;
52984;SDS011;40499;47.830;19.026;2022-09-29T10:57:44;0.50;;;0.10;;
52984;SDS011;40499;47.830;19.026;2022-09-29T11:03:20;0.50;;;0.20;;
52984;SDS011;40499;47.830;19.026;2022-09-29T11:08:31;1.17;;;0.17;;
52984;SDS011;40499;47.830;19.026;2022-09-29T11:11:07;0.68;;;0.20;;
52984;SDS011;40499;47.830;19.026;2022-09-29T11:13:41;0.25;;;0.10;;
52984;SDS011;40499;47.830;19.026;2022-09-29T11:16:13;1.00;;;0.30;;
52984;SDS011;40499;47.830;19.026;2022-09-29T11:18:39;2.15;;;0.30;;
52984;SDS011;40499;47.830;19.026;2022-09-29T11:21:51;0.75;;;0.30;;
52984;SDS011;40499;47.830;19.026;2022-09-29T11:28:50;0.73;;;0.20;;
52984;SDS011;40499;47.830;19.026;2022-09-29T11:31:34;0.35;;;0.20;;
52984;SDS011;40499;47.830;19.026;2022-09-29T11:34:30;0.40;;;0.20;;
52984;SDS011;40499;47.830;19.026;2022-09-29T12:17:30;0.80;;;0.30;;
52984;SDS011;40499;47.830;19.026;2022-09-29T12:19:59;0.55;;;0.20;;
52984;SDS011;40499;47.830;19.026;2022-09-29T12:22:25;0.88;;;0.47;;
52984;SDS011;40499;47.830;19.026;2022-09-29T12:24:54;1.92;;;0.30;;
52984;SDS011;40499;47.830;19.026;2022-09-29T12:27:31;1.15;;;0.25;;
52984;SDS011;40499;47.830;19.026;2022-09-29T12:30:01;1.20;;;0.32;;
52984;SDS011;40499;47.830;19.026;2022-09-29T12:32:37;1.50;;;0.30;;
52984;SDS011;40499;47.830;19.026;2022-09-29T12:35:17;2.10;;;0.80;;
52984;SDS011;40499;47.830;19.026;2022-09-29T12:40:38;1.05;;;0.30;;
52984;SDS011;40499;47.830;19.026;2022-09-29T12:45:40;2.20;;;1.02;;
52984;SDS011;40499;47.830;19.026;2022-09-29T12:51:00;0.85;;;0.30;;
52984;SDS011;40499;47.830;19.026;2022-09-29T12:53:34;1.52;;;0.20;;
52984;SDS011;40499;47.830;19.026;2022-09-29T12:56:08;1.40;;;0.60;;
52984;SDS011;40499;47.830;19.026;2022-09-29T12:58:42;1.10;;;0.40;;
52984;SDS011;40499;47.830;19.026;2022-09-29T13:01:22;0.50;;;0.20;;
52984;SDS011;40499;47.830;19.026;2022-09-29T13:06:50;0.88;;;0.20;;
52984;SDS011;40499;47.830;19.026;2022-09-29T13:09:30;0.90;;;0.30;;
52984;SDS011;40499;47.830;19.026;2022-09-29T13:12:04;0.85;;;0.32;;
52984;SDS011;40499;47.830;19.026;2022-09-29T13:14:42;0.57;;;0.28;;
52984;SDS011;40499;47.830;19.026;2022-09-29T13:17:33;0.80;;;0.30;;
52984;SDS011;40499;47.830;19.026;2022-09-29T13:20:23;0.95;;;0.40;;
52984;SDS011;40499;47.830;19.026;2022-09-29T13:28:24;0.65;;;0.17;;
52984;SDS011;40499;47.830;19.026;2022-09-29T13:30:50;0.60;;;0.20;;
52984;SDS011;40499;47.830;19.026;2022-09-29T13:33:20;0.43;;;0.20;;
52984;SDS011;40499;47.830;19.026;2022-09-29T13:35:47;0.68;;;0.20;;
52984;SDS011;40499;47.830;19.026;2022-09-29T13:38:19;0.30;;;0.10;;
52984;SDS011;40499;47.830;19.026;2022-09-29T13:48:52;0.75;;;0.20;;
52984;SDS011;40499;47.830;19.026;2022-09-29T13:51:22;1.85;;;0.20;;
52984;SDS011;40499;47.830;19.026;2022-09-29T13:53:47;0.50;;;0.20;;
52984;SDS011;40499;47.830;19.026;2022-09-29T13:56:33;0.73;;;0.20;;
52984;SDS011;40499;47.830;19.026;2022-09-29T13:58:59;2.03;;;0.23;;
52984;SDS011;40499;47.830;19.026;2022-09-29T14:01:32;0.85;;;0.30;;
52984;SDS011;40499;47.830;19.026;2022-09-29T14:04:22;1.10;;;0.20;;
52984;SDS011;40499;47.830;19.026;2022-09-29T14:06:45;1.25;;;0.17;;
52984;SDS011;40499;47.830;19.026;2022-09-29T14:09:18;2.72;;;0.65;;
52984;SDS011;40499;47.830;19.026;2022-09-29T14:11:50;2.53;;;0.15;;
52984;SDS011;40499;47.830;19.026;2022-09-29T14:21:54;0.77;;;0.20;;
52984;SDS011;40499;47.830;19.026;2022-09-29T14:29:51;3.92;;;0.70;;
52984;SDS011;40499;47.830;19.026;2022-09-29T14:32:18;1.10;;;0.45;;
52984;SDS011;40499;47.830;19.026;2022-09-29T14:34:44;1.30;;;0.20;;
52984;SDS011;40499;47.830;19.026;2022-09-29T14:37:13;1.80;;;0.32;;
52984;SDS011;40499;47.830;19.026;2022-09-29T14:39:40;2.50;;;0.45;;
52984;SDS011;40499;47.830;19.026;2022-09-29T14:42:10;0.60;;;0.20;;
52984;SDS011;40499;47.830;19.026;2022-09-29T14:44:37;0.93;;;0.40;;
52984;SDS011;40499;47.830;19.026;2022-09-29T14:47:27;0.98;;;0.30;;
52984;SDS011;40499;47.830;19.026;2022-09-29T15:01:25;1.00;;;0.30;;
52984;SDS011;40499;47.830;19.026;2022-09-29T15:03:52;1.90;;;0.73;;
52984;SDS011;40499;47.830;19.026;2022-09-29T15:06:22;1.85;;;0.52;;
52984;SDS011;40499;47.830;19.026;2022-09-29T15:08:55;1.58;;;0.55;;
52984;SDS011;40499;47.830;19.026;2022-09-29T15:13:50;1.55;;;0.80;;
52984;SDS011;40499;47.830;19.026;2022-09-29T15:27:07;4.33;;;0.53;;
52984;SDS011;40499;47.830;19.026;2022-09-29T15:29:36;2.03;;;0.80;;
52984;SDS011;40499;47.830;19.026;2022-09-29T15:32:01;3.15;;;0.45;;
52984;SDS011;40499;47.830;19.026;2022-09-29T15:34:27;0.88;;;0.47;;
52984;SDS011;40499;47.830;19.026;2022-09-29T15:36:53;0.85;;;0.22;;
52984;SDS011;40499;47.830;19.026;2022-09-29T15:42:00;2.17;;;0.32;;
52984;SDS011;40499;47.830;19.026;2022-09-29T15:44:30;1.40;;;0.60;;
52984;SDS011;40499;47.830;19.026;2022-09-29T15:46:56;1.45;;;0.40;;
52984;SDS011;40499;47.830;19.026;2022-09-29T15:49:25;1.35;;;0.47;;
52984;SDS011;40499;47.830;19.026;2022-09-29T15:51:58;1.63;;;0.50;;
52984;SDS011;40499;47.830;19.026;2022-09-29T15:54:34;1.48;;;0.50;;
52984;SDS011;40499;47.830;19.026;2022-09-29T15:57:01;2.65;;;0.85;;
52984;SDS011;40499;47.830;19.026;2022-09-29T15:59:46;2.97;;;0.68;;
52984;SDS011;40499;47.830;19.026;2022-09-29T16:05:03;6.57;;;2.35;;
52984;SDS011;40499;47.830;19.026;2022-09-29T16:07:31;6.45;;;2.90;;
52984;SDS011;40499;47.830;19.026;2022-09-29T16:09:59;10.35;;;4.97;;
52984;SDS011;40499;47.830;19.026;2022-09-29T16:12:25;21.70;;;10.63;;
52984;SDS011;40499;47.830;19.026;2022-09-29T16:14:54;14.35;;;6.68;;
52984;SDS011;40499;47.830;19.026;2022-09-29T16:17:21;15.57;;;8.55;;
52984;SDS011;40499;47.830;19.026;2022-09-29T16:19:48;17.60;;;10.25;;
52984;SDS011;40499;47.830;19.026;2022-09-29T16:22:17;14.85;;;8.30;;
52984;SDS011;40499;47.830;19.026;2022-09-29T16:25:07;19.88;;;11.40;;
52984;SDS011;40499;47.830;19.026;2022-09-29T16:27:52;19.90;;;11.43;;
52984;SDS011;40499;47.830;19.026;2022-09-29T16:30:24;16.80;;;8.48;;
52984;SDS011;40499;47.830;19.026;2022-09-29T16:33:01;11.07;;;5.95;;
52984;SDS011;40499;47.830;19.026;2022-09-29T16:40:50;4.45;;;2.70;;
52984;SDS011;40499;47.830;19.026;2022-09-29T16:43:26;4.07;;;2.33;;
52984;SDS011;40499;47.830;19.026;2022-09-29T16:45:55;7.57;;;4.43;;
52984;SDS011;40499;47.830;19.026;2022-09-29T16:48:21;15.57;;;7.22;;
52984;SDS011;40499;47.830;19.026;2022-09-29T16:50:48;14.27;;;8.10;;
52984;SDS011;40499;47.830;19.026;2022-09-29T16:53:30;17.05;;;9.93;;
52984;SDS011;40499;47.830;19.026;2022-09-29T16:55:56;23.52;;;12.75;;
52984;SDS011;40499;47.830;19.026;2022-09-29T16:58:22;12.50;;;7.07;;
52984;SDS011;40499;47.830;19.026;2022-09-29T17:00:48;15.95;;;8.27;;
52984;SDS011;40499;47.830;19.026;2022-09-29T17:03:13;11.13;;;6.60;;
52984;SDS011;40499;47.830;19.026;2022-09-29T17:05:42;15.77;;;8.63;;
52984;SDS011;40499;47.830;19.026;2022-09-29T17:08:19;17.05;;;8.77;;
52984;SDS011;40499;47.830;19.026;2022-09-29T17:10:46;8.77;;;3.95;;
52984;SDS011;40499;47.830;19.026;2022-09-29T17:13:14;8.73;;;4.20;;
52984;SDS011;40499;47.830;19.026;2022-09-29T17:15:41;5.57;;;2.90;;
52984;SDS011;40499;47.830;19.026;2022-09-29T17:18:09;5.32;;;2.65;;
52984;SDS011;40499;47.830;19.026;2022-09-29T17:20:36;4.47;;;2.15;;
52984;SDS011;40499;47.830;19.026;2022-09-29T17:23:01;6.57;;;2.80;;
52984;SDS011;40499;47.830;19.026;2022-09-29T17:25:26;5.03;;;2.33;;
52984;SDS011;40499;47.830;19.026;2022-09-29T17:28:02;3.97;;;2.67;;
52984;SDS011;40499;47.830;19.026;2022-09-29T17:30:54;7.43;;;3.30;;
52984;SDS011;40499;47.830;19.026;2022-09-29T17:33:39;5.43;;;2.88;;
52984;SDS011;40499;47.830;19.026;2022-09-29T17:36:06;5.53;;;2.75;;
52984;SDS011;40499;47.830;19.026;2022-09-29T17:38:36;5.68;;;2.55;;
52984;SDS011;40499;47.830;19.026;2022-09-29T17:41:03;5.13;;;2.60;;
52984;SDS011;40499;47.830;19.026;2022-09-29T17:43:40;6.10;;;2.78;;
52984;SDS011;40499;47.830;19.026;2022-09-29T17:46:11;12.48;;;3.53;;
52984;SDS011;40499;47.830;19.026;2022-09-29T17:48:37;6.68;;;3.40;;
52984;SDS011;40499;47.830;19.026;2022-09-29T17:51:03;4.88;;;3.08;;
52984;SDS011;40499;47.830;19.026;2022-09-29T17:53:30;6.68;;;3.63;;
52984;SDS011;40499;47.830;19.026;2022-09-29T17:55:56;5.90;;;3.67;;
52984;SDS011;40499;47.830;19.026;2022-09-29T17:58:21;17.20;;;9.75;;
52984;SDS011;40499;47.830;19.026;2022-09-29T18:00:47;22.77;;;13.93;;
52984;SDS011;40499;47.830;19.026;2022-09-29T18:03:13;8.48;;;5.85;;
52984;SDS011;40499;47.830;19.026;2022-09-29T18:05:40;14.57;;;8.63;;
52984;SDS011;40499;47.830;19.026;2022-09-29T18:08:08;15.35;;;9.05;;
52984;SDS011;40499;47.830;19.026;2022-09-29T18:10:34;13.10;;;9.63;;
52984;SDS011;40499;47.830;19.026;2022-09-29T18:13:02;11.35;;;7.25;;
52984;SDS011;40499;47.830;19.026;2022-09-29T18:15:28;7.68;;;5.47;;
52984;SDS011;40499;47.830;19.026;2022-09-29T18:17:53;9.20;;;5.13;;
52984;SDS011;40499;47.830;19.026;2022-09-29T18:20:19;8.25;;;5.97;;
52984;SDS011;40499;47.830;19.026;2022-09-29T18:22:45;7.43;;;5.32;;
52984;SDS011;40499;47.830;19.026;2022-09-29T18:25:15;7.00;;;3.85;;
52984;SDS011;40499;47.830;19.026;2022-09-29T18:27:42;9.15;;;6.15;;